sensor_id;sensor_type;location;lat;lon;timestamp;pressure;altitude;pressure_sealevel;temperature;humidity
64230;BME280;50547;49.498;0.092;2023-02-17T00:01:39;1023.18;;;10.93;91.83
64230;BME280;50547;49.498;0.092;2023-02-17T00:04:08;1023.18;;;10.98;91.59
64230;BME280;50547;49.498;0.092;2023-02-17T00:06:37;1023.22;;;11.03;91.36
64230;BME280;50547;49.498;0.092;2023-02-17T00:09:06;1023.22;;;11.06;91.33
64230;BME280;50547;49.498;0.092;2023-02-17T00:11:35;1023.22;;;11.05;91.45
64230;BME280;50547;49.498;0.092;2023-02-17T00:14:04;1023.22;;;11.01;91.81
64230;BME280;50547;49.498;0.092;2023-02-17T00:16:33;1023.26;;;11.00;91.85
64230;BME280;50547;49.498;0.092;2023-02-17T00:19:03;1023.20;;;11.02;91.70
64230;BME280;50547;49.498;0.092;2023-02-17T00:21:32;1023.26;;;10.97;92.08
64230;BME280;50547;49.498;0.092;2023-02-17T00:24:01;1023.28;;;10.99;91.92
64230;BME280;50547;49.498;0.092;2023-02-17T00:26:30;1023.24;;;10.96;92.03
64230;BME280;50547;49.498;0.092;2023-02-17T00:28:59;1023.24;;;10.94;92.07
64230;BME280;50547;49.498;0.092;2023-02-17T00:31:28;1023.26;;;10.98;91.81
64230;BME280;50547;49.498;0.092;2023-02-17T00:33:57;1023.24;;;11.00;91.76
64230;BME280;50547;49.498;0.092;2023-02-17T00:36:26;1023.26;;;10.98;92.17
64230;BME280;50547;49.498;0.092;2023-02-17T00:38:56;1023.28;;;11.04;91.99
64230;BME280;50547;49.498;0.092;2023-02-17T00:41:26;1023.24;;;11.06;91.93
64230;BME280;50547;49.498;0.092;2023-02-17T00:43:56;1023.24;;;11.12;91.66
64230;BME280;50547;49.498;0.092;2023-02-17T00:46:26;1023.18;;;11.21;91.30
64230;BME280;50547;49.498;0.092;2023-02-17T00:48:55;1023.18;;;11.21;91.35
64230;BME280;50547;49.498;0.092;2023-02-17T00:51:24;1023.20;;;11.24;91.19
64230;BME280;50547;49.498;0.092;2023-02-17T00:53:54;1023.10;;;11.35;90.71
64230;BME280;50547;49.498;0.092;2023-02-17T00:56:23;1023.12;;;11.49;90.02
64230;BME280;50547;49.498;0.092;2023-02-17T00:58:52;1023.12;;;11.55;89.90
64230;BME280;50547;49.498;0.092;2023-02-17T01:01:21;1023.10;;;11.58;89.99
64230;BME280;50547;49.498;0.092;2023-02-17T01:03:50;1023.10;;;11.57;90.14
64230;BME280;50547;49.498;0.092;2023-02-17T01:06:22;1023.10;;;11.55;90.30
64230;BME280;50547;49.498;0.092;2023-02-17T01:08:51;1023.14;;;11.51;90.46
64230;BME280;50547;49.498;0.092;2023-02-17T01:11:23;1023.14;;;11.37;91.30
64230;BME280;50547;49.498;0.092;2023-02-17T01:13:53;1023.18;;;11.39;91.06
64230;BME280;50547;49.498;0.092;2023-02-17T01:16:25;1023.22;;;11.29;91.48
64230;BME280;50547;49.498;0.092;2023-02-17T01:18:52;1023.26;;;11.27;91.50
64230;BME280;50547;49.498;0.092;2023-02-17T01:21:24;1023.20;;;11.30;91.36
64230;BME280;50547;49.498;0.092;2023-02-17T01:23:54;1023.14;;;11.40;90.94
64230;BME280;50547;49.498;0.092;2023-02-17T01:26:27;1023.20;;;11.64;89.70
64230;BME280;50547;49.498;0.092;2023-02-17T01:28:57;1023.18;;;11.63;89.95
64230;BME280;50547;49.498;0.092;2023-02-17T01:31:27;1023.22;;;11.49;90.76
64230;BME280;50547;49.498;0.092;2023-02-17T01:33:58;1023.20;;;11.38;91.27
64230;BME280;50547;49.498;0.092;2023-02-17T01:36:28;1023.18;;;11.33;91.37
64230;BME280;50547;49.498;0.092;2023-02-17T01:38:57;1023.16;;;11.44;90.78
64230;BME280;50547;49.498;0.092;2023-02-17T01:41:27;1023.12;;;11.54;90.37
64230;BME280;50547;49.498;0.092;2023-02-17T01:44:08;1023.12;;;11.67;89.75
64230;BME280;50547;49.498;0.092;2023-02-17T01:46:39;1023.16;;;11.92;88.62
64230;BME280;50547;49.498;0.092;2023-02-17T01:49:16;1023.18;;;11.96;88.92
64230;BME280;50547;49.498;0.092;2023-02-17T01:51:50;1023.16;;;11.85;89.60
64230;BME280;50547;49.498;0.092;2023-02-17T01:54:24;1023.18;;;11.68;90.46
64230;BME280;50547;49.498;0.092;2023-02-17T01:56:56;1023.16;;;11.87;89.41
64230;BME280;50547;49.498;0.092;2023-02-17T01:59:27;1023.12;;;11.81;89.44
64230;BME280;50547;49.498;0.092;2023-02-17T02:02:00;1023.10;;;11.78;89.46
64230;BME280;50547;49.498;0.092;2023-02-17T02:04:33;1023.10;;;11.78;89.37
64230;BME280;50547;49.498;0.092;2023-02-17T02:07:05;1023.10;;;11.77;89.36
64230;BME280;50547;49.498;0.092;2023-02-17T02:09:40;1023.02;;;11.82;89.08
64230;BME280;50547;49.498;0.092;2023-02-17T02:12:17;1023.02;;;11.70;89.68
64230;BME280;50547;49.498;0.092;2023-02-17T02:14:47;1023.00;;;11.59;90.18
64230;BME280;50547;49.498;0.092;2023-02-17T02:17:25;1023.00;;;11.81;89.10
64230;BME280;50547;49.498;0.092;2023-02-17T02:20:12;1022.99;;;11.98;88.42
64230;BME280;50547;49.498;0.092;2023-02-17T02:23:06;1022.99;;;11.98;88.22
64230;BME280;50547;49.498;0.092;2023-02-17T02:26:03;1022.97;;;12.05;88.44
64230;BME280;50547;49.498;0.092;2023-02-17T02:28:46;1022.91;;;12.30;87.83
64230;BME280;50547;49.498;0.092;2023-02-17T02:31:28;1022.87;;;12.17;88.20
64230;BME280;50547;49.498;0.092;2023-02-17T02:34:08;1022.85;;;12.10;88.61
64230;BME280;50547;49.498;0.092;2023-02-17T02:36:43;1022.77;;;12.09;88.44
64230;BME280;50547;49.498;0.092;2023-02-17T02:39:16;1022.77;;;12.13;88.14
64230;BME280;50547;49.498;0.092;2023-02-17T02:41:49;1022.75;;;12.10;88.38
64230;BME280;50547;49.498;0.092;2023-02-17T02:44:21;1022.69;;;12.03;88.46
64230;BME280;50547;49.498;0.092;2023-02-17T02:46:58;1022.69;;;11.90;89.07
64230;BME280;50547;49.498;0.092;2023-02-17T02:49:29;1022.65;;;11.85;89.12
64230;BME280;50547;49.498;0.092;2023-02-17T02:52:05;1022.61;;;11.86;89.00
64230;BME280;50547;49.498;0.092;2023-02-17T02:54:45;1022.63;;;11.93;88.58
64230;BME280;50547;49.498;0.092;2023-02-17T02:57:25;1022.57;;;12.05;87.89
64230;BME280;50547;49.498;0.092;2023-02-17T03:00:10;1022.57;;;12.07;87.80
64230;BME280;50547;49.498;0.092;2023-02-17T03:02:43;1022.59;;;12.02;88.09
64230;BME280;50547;49.498;0.092;2023-02-17T03:05:19;1022.61;;;11.85;89.09
64230;BME280;50547;49.498;0.092;2023-02-17T03:07:57;1022.59;;;11.84;89.12
64230;BME280;50547;49.498;0.092;2023-02-17T03:10:27;1022.61;;;11.70;89.63
64230;BME280;50547;49.498;0.092;2023-02-17T03:12:57;1022.61;;;11.49;90.67
64230;BME280;50547;49.498;0.092;2023-02-17T03:15:29;1022.59;;;11.46;90.60
64230;BME280;50547;49.498;0.092;2023-02-17T03:18:01;1022.59;;;11.52;90.14
64230;BME280;50547;49.498;0.092;2023-02-17T03:20:33;1022.63;;;11.57;89.83
64230;BME280;50547;49.498;0.092;2023-02-17T03:23:04;1022.59;;;11.67;89.50
64230;BME280;50547;49.498;0.092;2023-02-17T03:25:33;1022.67;;;11.77;89.21
64230;BME280;50547;49.498;0.092;2023-02-17T03:28:03;1022.65;;;11.90;88.75
64230;BME280;50547;49.498;0.092;2023-02-17T03:30:32;1022.65;;;11.90;89.01
64230;BME280;50547;49.498;0.092;2023-02-17T03:33:01;1022.61;;;12.03;88.45
64230;BME280;50547;49.498;0.092;2023-02-17T03:35:30;1022.63;;;11.94;89.02
64230;BME280;50547;49.498;0.092;2023-02-17T03:37:59;1022.59;;;12.00;88.54
64230;BME280;50547;49.498;0.092;2023-02-17T03:40:28;1022.69;;;11.94;88.91
64230;BME280;50547;49.498;0.092;2023-02-17T03:42:57;1022.69;;;11.94;89.01
64230;BME280;50547;49.498;0.092;2023-02-17T03:45:26;1022.71;;;11.73;89.72
64230;BME280;50547;49.498;0.092;2023-02-17T03:47:55;1022.67;;;11.75;89.54
64230;BME280;50547;49.498;0.092;2023-02-17T03:50:24;1022.75;;;11.83;89.07
64230;BME280;50547;49.498;0.092;2023-02-17T03:52:53;1022.75;;;11.94;88.59
64230;BME280;50547;49.498;0.092;2023-02-17T03:55:22;1022.79;;;12.07;88.06
64230;BME280;50547;49.498;0.092;2023-02-17T03:57:52;1022.85;;;12.01;88.52
64230;BME280;50547;49.498;0.092;2023-02-17T04:00:21;1022.89;;;11.89;89.18
64230;BME280;50547;49.498;0.092;2023-02-17T04:02:50;1022.87;;;11.90;89.05
64230;BME280;50547;49.498;0.092;2023-02-17T04:05:19;1022.89;;;12.03;88.22
64230;BME280;50547;49.498;0.092;2023-02-17T04:07:48;1022.93;;;12.04;88.22
64230;BME280;50547;49.498;0.092;2023-02-17T04:10:17;1022.93;;;12.00;88.50
64230;BME280;50547;49.498;0.092;2023-02-17T04:12:46;1022.93;;;12.00;88.54
64230;BME280;50547;49.498;0.092;2023-02-17T04:15:16;1022.87;;;12.03;88.28
64230;BME280;50547;49.498;0.092;2023-02-17T04:17:45;1022.85;;;11.87;89.09
64230;BME280;50547;49.498;0.092;2023-02-17T04:20:14;1022.91;;;11.68;89.84
64230;BME280;50547;49.498;0.092;2023-02-17T04:22:43;1022.91;;;11.68;89.69
64230;BME280;50547;49.498;0.092;2023-02-17T04:25:12;1022.97;;;11.81;88.85
64230;BME280;50547;49.498;0.092;2023-02-17T04:27:41;1022.95;;;11.85;88.49
64230;BME280;50547;49.498;0.092;2023-02-17T04:30:11;1022.93;;;11.88;88.48
64230;BME280;50547;49.498;0.092;2023-02-17T04:32:40;1023.00;;;11.94;88.33
64230;BME280;50547;49.498;0.092;2023-02-17T04:35:10;1023.04;;;11.87;88.80
64230;BME280;50547;49.498;0.092;2023-02-17T04:37:39;1023.08;;;11.62;90.01
64230;BME280;50547;49.498;0.092;2023-02-17T04:40:08;1023.10;;;11.60;89.97
64230;BME280;50547;49.498;0.092;2023-02-17T04:42:38;1023.08;;;11.62;89.82
64230;BME280;50547;49.498;0.092;2023-02-17T04:45:08;1023.04;;;11.78;88.90
64230;BME280;50547;49.498;0.092;2023-02-17T04:47:37;1023.10;;;11.78;88.95
64230;BME280;50547;49.498;0.092;2023-02-17T04:50:08;1023.08;;;11.66;89.61
64230;BME280;50547;49.498;0.092;2023-02-17T04:52:37;1023.14;;;11.68;89.56
64230;BME280;50547;49.498;0.092;2023-02-17T04:55:07;1023.14;;;11.64;89.78
64230;BME280;50547;49.498;0.092;2023-02-17T04:57:36;1023.22;;;11.78;89.16
64230;BME280;50547;49.498;0.092;2023-02-17T05:00:07;1023.18;;;11.65;89.88
64230;BME280;50547;49.498;0.092;2023-02-17T05:02:36;1023.22;;;11.54;90.35
64230;BME280;50547;49.498;0.092;2023-02-17T05:05:06;1023.20;;;11.53;90.24
64230;BME280;50547;49.498;0.092;2023-02-17T05:07:35;1023.22;;;11.51;90.34
64230;BME280;50547;49.498;0.092;2023-02-17T05:10:04;1023.26;;;11.50;90.38
64230;BME280;50547;49.498;0.092;2023-02-17T05:12:33;1023.24;;;11.56;90.11
64230;BME280;50547;49.498;0.092;2023-02-17T05:15:04;1023.22;;;11.61;89.93
64230;BME280;50547;49.498;0.092;2023-02-17T05:17:33;1023.28;;;11.85;88.98
64230;BME280;50547;49.498;0.092;2023-02-17T05:20:04;1023.26;;;11.92;88.92
64230;BME280;50547;49.498;0.092;2023-02-17T05:22:34;1023.26;;;11.82;89.66
64230;BME280;50547;49.498;0.092;2023-02-17T05:25:03;1023.32;;;11.85;89.43
64230;BME280;50547;49.498;0.092;2023-02-17T05:27:33;1023.34;;;11.84;89.54
64230;BME280;50547;49.498;0.092;2023-02-17T05:30:04;1023.38;;;11.76;89.82
64230;BME280;50547;49.498;0.092;2023-02-17T05:32:33;1023.42;;;11.76;89.82
64230;BME280;50547;49.498;0.092;2023-02-17T05:35:03;1023.42;;;11.66;90.29
64230;BME280;50547;49.498;0.092;2023-02-17T05:37:32;1023.50;;;11.54;90.80
64230;BME280;50547;49.498;0.092;2023-02-17T05:40:01;1023.42;;;11.44;91.16
64230;BME280;50547;49.498;0.092;2023-02-17T05:42:30;1023.50;;;11.35;91.38
64230;BME280;50547;49.498;0.092;2023-02-17T05:44:59;1023.50;;;11.34;91.31
64230;BME280;50547;49.498;0.092;2023-02-17T05:47:28;1023.52;;;11.23;91.82
64230;BME280;50547;49.498;0.092;2023-02-17T05:49:57;1023.56;;;11.25;91.54
64230;BME280;50547;49.498;0.092;2023-02-17T05:52:26;1023.64;;;11.03;92.63
64230;BME280;50547;49.498;0.092;2023-02-17T05:54:55;1023.66;;;10.99;92.73
64230;BME280;50547;49.498;0.092;2023-02-17T05:57:24;1023.64;;;10.96;92.77
64230;BME280;50547;49.498;0.092;2023-02-17T05:59:53;1023.56;;;11.02;92.42
64230;BME280;50547;49.498;0.092;2023-02-17T06:02:22;1023.62;;;11.02;92.40
64230;BME280;50547;49.498;0.092;2023-02-17T06:04:51;1023.70;;;11.10;92.02
64230;BME280;50547;49.498;0.092;2023-02-17T06:07:20;1023.72;;;11.14;91.81
64230;BME280;50547;49.498;0.092;2023-02-17T06:09:49;1023.68;;;11.04;92.56
64230;BME280;50547;49.498;0.092;2023-02-17T06:12:18;1023.80;;;11.09;92.51
64230;BME280;50547;49.498;0.092;2023-02-17T06:14:47;1023.74;;;11.04;92.68
64230;BME280;50547;49.498;0.092;2023-02-17T06:17:16;1023.82;;;10.97;92.81
64230;BME280;50547;49.498;0.092;2023-02-17T06:19:45;1023.80;;;10.86;93.40
64230;BME280;50547;49.498;0.092;2023-02-17T06:22:14;1023.80;;;10.93;93.01
64230;BME280;50547;49.498;0.092;2023-02-17T06:24:43;1023.74;;;10.87;93.33
64230;BME280;50547;49.498;0.092;2023-02-17T06:27:12;1023.78;;;10.93;93.08
64230;BME280;50547;49.498;0.092;2023-02-17T06:29:42;1023.76;;;10.91;93.17
64230;BME280;50547;49.498;0.092;2023-02-17T06:32:11;1023.76;;;10.86;93.39
64230;BME280;50547;49.498;0.092;2023-02-17T06:34:40;1023.80;;;10.90;93.13
64230;BME280;50547;49.498;0.092;2023-02-17T06:37:09;1023.86;;;10.95;92.82
64230;BME280;50547;49.498;0.092;2023-02-17T06:39:38;1023.90;;;10.86;93.27
64230;BME280;50547;49.498;0.092;2023-02-17T06:42:07;1023.94;;;10.94;92.83
64230;BME280;50547;49.498;0.092;2023-02-17T06:44:36;1023.94;;;10.92;92.77
64230;BME280;50547;49.498;0.092;2023-02-17T06:47:05;1023.97;;;10.86;93.08
64230;BME280;50547;49.498;0.092;2023-02-17T06:49:33;1023.99;;;10.93;92.80
64230;BME280;50547;49.498;0.092;2023-02-17T06:52:03;1024.03;;;10.92;92.85
64230;BME280;50547;49.498;0.092;2023-02-17T06:54:32;1024.15;;;10.92;92.85
64230;BME280;50547;49.498;0.092;2023-02-17T06:57:01;1024.25;;;10.97;92.64
64230;BME280;50547;49.498;0.092;2023-02-17T06:59:30;1024.25;;;10.96;92.72
64230;BME280;50547;49.498;0.092;2023-02-17T07:01:59;1024.27;;;11.08;92.19
64230;BME280;50547;49.498;0.092;2023-02-17T07:04:28;1024.29;;;11.20;91.86
64230;BME280;50547;49.498;0.092;2023-02-17T07:06:57;1024.23;;;11.22;91.77
64230;BME280;50547;49.498;0.092;2023-02-17T07:09:26;1024.25;;;11.28;91.60
64230;BME280;50547;49.498;0.092;2023-02-17T07:11:55;1024.27;;;11.20;92.04
64230;BME280;50547;49.498;0.092;2023-02-17T07:14:24;1024.25;;;11.13;92.27
64230;BME280;50547;49.498;0.092;2023-02-17T07:16:54;1024.29;;;11.22;91.76
64230;BME280;50547;49.498;0.092;2023-02-17T07:19:23;1024.31;;;11.34;91.25
64230;BME280;50547;49.498;0.092;2023-02-17T07:21:52;1024.27;;;11.36;91.29
64230;BME280;50547;49.498;0.092;2023-02-17T07:24:21;1024.27;;;11.52;90.57
64230;BME280;50547;49.498;0.092;2023-02-17T07:26:50;1024.29;;;11.52;90.72
64230;BME280;50547;49.498;0.092;2023-02-17T07:29:19;1024.25;;;11.66;90.18
64230;BME280;50547;49.498;0.092;2023-02-17T07:31:48;1024.29;;;11.71;90.08
64230;BME280;50547;49.498;0.092;2023-02-17T07:34:17;1024.23;;;11.62;90.82
64230;BME280;50547;49.498;0.092;2023-02-17T07:36:43;1024.23;;;11.70;90.21
64230;BME280;50547;49.498;0.092;2023-02-17T07:39:12;1024.23;;;11.80;89.51
64230;BME280;50547;49.498;0.092;2023-02-17T07:41:41;1024.29;;;11.57;90.59
64230;BME280;50547;49.498;0.092;2023-02-17T07:44:10;1024.35;;;11.35;91.60
64230;BME280;50547;49.498;0.092;2023-02-17T07:46:39;1024.38;;;11.15;92.07
64230;BME280;50547;49.498;0.092;2023-02-17T07:49:08;1024.42;;;11.12;91.92
64230;BME280;50547;49.498;0.092;2023-02-17T07:51:37;1024.38;;;11.08;91.85
64230;BME280;50547;49.498;0.092;2023-02-17T07:54:06;1024.42;;;11.16;91.37
64230;BME280;50547;49.498;0.092;2023-02-17T07:56:35;1024.40;;;11.29;90.76
64230;BME280;50547;49.498;0.092;2023-02-17T07:59:07;1024.44;;;11.36;90.53
64230;BME280;50547;49.498;0.092;2023-02-17T08:01:36;1024.46;;;11.57;89.56
64230;BME280;50547;49.498;0.092;2023-02-17T08:04:06;1024.52;;;11.61;89.77
64230;BME280;50547;49.498;0.092;2023-02-17T08:06:31;1024.58;;;11.80;89.04
64230;BME280;50547;49.498;0.092;2023-02-17T08:09:00;1024.62;;;11.81;89.09
64230;BME280;50547;49.498;0.092;2023-02-17T08:11:30;1024.56;;;11.76;89.46
64230;BME280;50547;49.498;0.092;2023-02-17T08:13:55;1024.62;;;11.71;89.63
64230;BME280;50547;49.498;0.092;2023-02-17T08:16:25;1024.64;;;11.64;89.99
64230;BME280;50547;49.498;0.092;2023-02-17T08:18:54;1024.58;;;11.53;90.47
64230;BME280;50547;49.498;0.092;2023-02-17T08:21:25;1024.56;;;11.32;91.43
64230;BME280;50547;49.498;0.092;2023-02-17T08:23:54;1024.54;;;11.42;90.60
64230;BME280;50547;49.498;0.092;2023-02-17T08:26:24;1024.58;;;11.25;91.49
64230;BME280;50547;49.498;0.092;2023-02-17T08:28:53;1024.48;;;11.18;91.96
64230;BME280;50547;49.498;0.092;2023-02-17T08:31:25;1024.52;;;11.07;92.28
64230;BME280;50547;49.498;0.092;2023-02-17T08:33:52;1024.56;;;11.11;91.99
64230;BME280;50547;49.498;0.092;2023-02-17T08:36:22;1024.58;;;11.07;92.00
64230;BME280;50547;49.498;0.092;2023-02-17T08:38:52;1024.64;;;11.13;91.36
64230;BME280;50547;49.498;0.092;2023-02-17T08:41:23;1024.70;;;11.15;91.23
64230;BME280;50547;49.498;0.092;2023-02-17T08:44:01;1024.72;;;11.13;91.37
64230;BME280;50547;49.498;0.092;2023-02-17T08:46:29;1024.68;;;11.24;90.77
64230;BME280;50547;49.498;0.092;2023-02-17T08:48:56;1024.72;;;11.33;90.35
64230;BME280;50547;49.498;0.092;2023-02-17T08:51:25;1024.70;;;11.43;90.14
64230;BME280;50547;49.498;0.092;2023-02-17T08:53:54;1024.68;;;11.46;90.13
64230;BME280;50547;49.498;0.092;2023-02-17T08:56:25;1024.66;;;11.49;90.07
64230;BME280;50547;49.498;0.092;2023-02-17T08:58:51;1024.70;;;11.48;90.30
64230;BME280;50547;49.498;0.092;2023-02-17T09:01:21;1024.74;;;11.51;90.08
64230;BME280;50547;49.498;0.092;2023-02-17T09:03:52;1024.80;;;11.41;90.53
64230;BME280;50547;49.498;0.092;2023-02-17T09:06:21;1024.85;;;11.38;90.59
64230;BME280;50547;49.498;0.092;2023-02-17T09:08:47;1024.85;;;11.45;90.23
64230;BME280;50547;49.498;0.092;2023-02-17T09:11:17;1024.87;;;11.45;90.25
64230;BME280;50547;49.498;0.092;2023-02-17T09:13:46;1024.91;;;11.42;90.49
64230;BME280;50547;49.498;0.092;2023-02-17T09:16:15;1024.89;;;11.44;90.35
64230;BME280;50547;49.498;0.092;2023-02-17T09:18:45;1024.91;;;11.31;90.80
64230;BME280;50547;49.498;0.092;2023-02-17T09:21:13;1024.82;;;11.19;91.24
64230;BME280;50547;49.498;0.092;2023-02-17T09:23:43;1024.82;;;11.19;90.79
64230;BME280;50547;49.498;0.092;2023-02-17T09:26:14;1024.91;;;11.13;90.85
64230;BME280;50547;49.498;0.092;2023-02-17T09:28:44;1024.91;;;11.19;90.30
64230;BME280;50547;49.498;0.092;2023-02-17T09:31:16;1024.95;;;11.27;89.76
64230;BME280;50547;49.498;0.092;2023-02-17T09:33:46;1024.97;;;11.34;89.47
64230;BME280;50547;49.498;0.092;2023-02-17T09:36:18;1024.93;;;11.24;90.00
64230;BME280;50547;49.498;0.092;2023-02-17T09:38:46;1025.05;;;11.23;89.98
64230;BME280;50547;49.498;0.092;2023-02-17T09:41:20;1025.07;;;11.17;90.33
64230;BME280;50547;49.498;0.092;2023-02-17T09:43:50;1025.09;;;11.02;90.79
64230;BME280;50547;49.498;0.092;2023-02-17T09:46:24;1025.15;;;11.04;90.78
64230;BME280;50547;49.498;0.092;2023-02-17T09:49:00;1025.13;;;11.14;90.12
64230;BME280;50547;49.498;0.092;2023-02-17T09:51:34;1025.15;;;11.19;89.94
64230;BME280;50547;49.498;0.092;2023-02-17T09:54:19;1025.23;;;11.24;89.58
64230;BME280;50547;49.498;0.092;2023-02-17T09:56:51;1025.21;;;11.29;89.24
64230;BME280;50547;49.498;0.092;2023-02-17T09:59:22;1025.29;;;11.35;89.07
64230;BME280;50547;49.498;0.092;2023-02-17T10:01:54;1025.27;;;11.38;88.96
64230;BME280;50547;49.498;0.092;2023-02-17T10:04:28;1025.25;;;11.42;88.89
64230;BME280;50547;49.498;0.092;2023-02-17T10:07:06;1025.23;;;11.49;88.56
64230;BME280;50547;49.498;0.092;2023-02-17T10:09:39;1025.23;;;11.48;88.68
64230;BME280;50547;49.498;0.092;2023-02-17T10:12:13;1025.27;;;11.43;88.88
64230;BME280;50547;49.498;0.092;2023-02-17T10:14:45;1025.32;;;11.35;89.19
64230;BME280;50547;49.498;0.092;2023-02-17T10:17:21;1025.34;;;11.32;89.25
64230;BME280;50547;49.498;0.092;2023-02-17T10:19:54;1025.34;;;11.18;89.80
64230;BME280;50547;49.498;0.092;2023-02-17T10:22:26;1025.32;;;11.09;90.16
64230;BME280;50547;49.498;0.092;2023-02-17T10:24:55;1025.36;;;11.17;89.81
64230;BME280;50547;49.498;0.092;2023-02-17T10:27:31;1025.29;;;11.10;89.98
64230;BME280;50547;49.498;0.092;2023-02-17T10:30:15;1025.32;;;11.20;89.57
64230;BME280;50547;49.498;0.092;2023-02-17T10:32:57;1025.36;;;11.32;89.09
64230;BME280;50547;49.498;0.092;2023-02-17T10:35:39;1025.40;;;11.43;88.58
64230;BME280;50547;49.498;0.092;2023-02-17T10:38:15;1025.38;;;11.46;88.43
64230;BME280;50547;49.498;0.092;2023-02-17T10:40:48;1025.36;;;11.39;88.91
64230;BME280;50547;49.498;0.092;2023-02-17T10:43:22;1025.44;;;11.34;89.22
64230;BME280;50547;49.498;0.092;2023-02-17T10:45:50;1025.42;;;11.33;89.25
64230;BME280;50547;49.498;0.092;2023-02-17T10:48:21;1025.50;;;11.35;89.20
64230;BME280;50547;49.498;0.092;2023-02-17T10:50:52;1025.50;;;11.29;89.39
64230;BME280;50547;49.498;0.092;2023-02-17T10:53:28;1025.44;;;11.35;88.98
64230;BME280;50547;49.498;0.092;2023-02-17T10:56:00;1025.46;;;11.33;89.04
64230;BME280;50547;49.498;0.092;2023-02-17T10:58:35;1025.48;;;11.40;88.66
64230;BME280;50547;49.498;0.092;2023-02-17T11:01:06;1025.44;;;11.49;88.22
64230;BME280;50547;49.498;0.092;2023-02-17T11:03:35;1025.42;;;11.41;88.64
64230;BME280;50547;49.498;0.092;2023-02-17T11:06:12;1025.38;;;11.42;88.55
64230;BME280;50547;49.498;0.092;2023-02-17T11:08:45;1025.38;;;11.66;87.35
64230;BME280;50547;49.498;0.092;2023-02-17T11:11:19;1025.38;;;11.68;87.37
64230;BME280;50547;49.498;0.092;2023-02-17T11:14:00;1025.44;;;11.53;88.18
64230;BME280;50547;49.498;0.092;2023-02-17T11:16:35;1025.48;;;11.43;88.72
64230;BME280;50547;49.498;0.092;2023-02-17T11:19:06;1025.52;;;11.40;88.77
64230;BME280;50547;49.498;0.092;2023-02-17T11:21:46;1025.56;;;11.40;88.73
64230;BME280;50547;49.498;0.092;2023-02-17T11:24:15;1025.60;;;11.48;88.34
64230;BME280;50547;49.498;0.092;2023-02-17T11:26:54;1025.60;;;11.45;88.51
64230;BME280;50547;49.498;0.092;2023-02-17T11:29:24;1025.54;;;11.46;88.38
64230;BME280;50547;49.498;0.092;2023-02-17T11:31:55;1025.62;;;11.39;88.64
64230;BME280;50547;49.498;0.092;2023-02-17T11:34:26;1025.62;;;11.39;88.68
64230;BME280;50547;49.498;0.092;2023-02-17T11:36:58;1025.56;;;11.33;88.98
64230;BME280;50547;49.498;0.092;2023-02-17T11:39:28;1025.58;;;11.36;88.92
64230;BME280;50547;49.498;0.092;2023-02-17T11:41:57;1025.56;;;11.39;88.67
64230;BME280;50547;49.498;0.092;2023-02-17T11:44:27;1025.56;;;11.34;89.09
64230;BME280;50547;49.498;0.092;2023-02-17T11:47:04;1025.62;;;11.28;89.49
64230;BME280;50547;49.498;0.092;2023-02-17T11:49:45;1025.64;;;11.39;88.90
64230;BME280;50547;49.498;0.092;2023-02-17T11:52:29;1025.66;;;11.28;89.51
64230;BME280;50547;49.498;0.092;2023-02-17T11:55:12;1025.68;;;11.25;89.64
64230;BME280;50547;49.498;0.092;2023-02-17T11:58:01;1025.52;;;11.26;89.37
64230;BME280;50547;49.498;0.092;2023-02-17T12:00:42;1025.38;;;11.23;89.34
64230;BME280;50547;49.498;0.092;2023-02-17T12:03:38;1025.52;;;11.28;88.97
64230;BME280;50547;49.498;0.092;2023-02-17T12:06:26;1025.46;;;11.18;89.43
64230;BME280;50547;49.498;0.092;2023-02-17T12:09:10;1025.50;;;11.22;89.38
64230;BME280;50547;49.498;0.092;2023-02-17T12:11:50;1025.50;;;11.21;89.49
64230;BME280;50547;49.498;0.092;2023-02-17T12:14:34;1025.56;;;11.16;89.73
64230;BME280;50547;49.498;0.092;2023-02-17T12:17:15;1025.58;;;11.13;89.87
64230;BME280;50547;49.498;0.092;2023-02-17T12:19:53;1025.58;;;11.05;90.10
64230;BME280;50547;49.498;0.092;2023-02-17T12:22:31;1025.60;;;11.00;90.41
64230;BME280;50547;49.498;0.092;2023-02-17T17:24:18;1025.95;;;11.52;86.13
64230;BME280;50547;49.498;0.092;2023-02-17T17:26:45;1026.12;;;11.51;86.18
64230;BME280;50547;49.498;0.092;2023-02-17T17:29:16;1026.10;;;11.54;85.97
64230;BME280;50547;49.498;0.092;2023-02-17T17:31:46;1026.10;;;11.51;86.11
64230;BME280;50547;49.498;0.092;2023-02-17T17:34:17;1026.08;;;11.48;86.20
64230;BME280;50547;49.498;0.092;2023-02-17T17:36:57;1026.10;;;11.48;86.13
64230;BME280;50547;49.498;0.092;2023-02-17T17:39:25;1026.16;;;11.50;85.97
64230;BME280;50547;49.498;0.092;2023-02-17T17:41:54;1026.14;;;11.53;85.78
64230;BME280;50547;49.498;0.092;2023-02-17T17:44:24;1026.20;;;11.46;86.22
64230;BME280;50547;49.498;0.092;2023-02-17T17:46:53;1026.18;;;11.50;86.05
64230;BME280;50547;49.498;0.092;2023-02-17T17:49:22;1026.20;;;11.48;86.06
64230;BME280;50547;49.498;0.092;2023-02-17T17:51:51;1026.16;;;11.52;85.74
64230;BME280;50547;49.498;0.092;2023-02-17T17:54:20;1026.16;;;11.57;85.55
64230;BME280;50547;49.498;0.092;2023-02-17T17:56:49;1026.16;;;11.60;85.45
64230;BME280;50547;49.498;0.092;2023-02-17T17:59:18;1026.29;;;11.53;85.77
64230;BME280;50547;49.498;0.092;2023-02-17T18:01:47;1026.27;;;11.50;85.91
64230;BME280;50547;49.498;0.092;2023-02-17T18:04:16;1026.29;;;11.55;85.41
64230;BME280;50547;49.498;0.092;2023-02-17T18:06:47;1026.41;;;11.55;85.29
64230;BME280;50547;49.498;0.092;2023-02-17T18:09:20;1026.37;;;11.56;85.17
64230;BME280;50547;49.498;0.092;2023-02-17T18:11:51;1026.45;;;11.62;84.91
64230;BME280;50547;49.498;0.092;2023-02-17T18:14:23;1026.37;;;11.64;84.85
64230;BME280;50547;49.498;0.092;2023-02-17T18:16:52;1026.43;;;11.66;84.93
64230;BME280;50547;49.498;0.092;2023-02-17T18:19:21;1026.41;;;11.60;85.06
64230;BME280;50547;49.498;0.092;2023-02-17T18:21:50;1026.39;;;11.54;85.42
64230;BME280;50547;49.498;0.092;2023-02-17T18:24:19;1026.33;;;11.68;84.85
64230;BME280;50547;49.498;0.092;2023-02-17T18:26:48;1026.27;;;11.65;84.96
64230;BME280;50547;49.498;0.092;2023-02-17T18:29:18;1026.39;;;11.72;84.52
64230;BME280;50547;49.498;0.092;2023-02-17T18:31:47;1026.39;;;11.70;84.57